createdAt,value
2022-11-22T00:09:32.488Z,9.5
2022-11-22T00:19:32.417Z,9.5
2022-11-22T00:29:32.475Z,9.5
2022-11-22T00:39:32.711Z,9.5
2022-11-22T00:49:32.797Z,9.5
2022-11-22T00:59:32.613Z,9.5
2022-11-22T01:09:32.725Z,9.5
2022-11-22T01:19:32.756Z,9
2022-11-22T01:29:32.611Z,8.5
2022-11-22T01:39:32.885Z,9
2022-11-22T01:49:32.692Z,9
2022-11-22T01:59:32.803Z,9
2022-11-22T02:09:32.710Z,8.5
2022-11-22T02:19:32.803Z,8.5
2022-11-22T02:29:32.727Z,9
2022-11-22T02:39:32.799Z,8.5
2022-11-22T02:49:32.790Z,8.5
2022-11-22T02:59:32.724Z,8.5
2022-11-22T03:09:32.906Z,9
2022-11-22T03:19:32.819Z,8.5
2022-11-22T03:29:32.793Z,9
2022-11-22T03:39:32.794Z,9
2022-11-22T03:49:32.888Z,8.5
2022-11-22T03:59:32.738Z,9
2022-11-22T04:09:33.047Z,9
2022-11-22T04:19:32.936Z,9
2022-11-22T04:29:32.963Z,9
2022-11-22T04:39:32.951Z,9
2022-11-22T04:49:32.712Z,9
2022-11-22T04:59:32.928Z,9
2022-11-22T05:09:32.791Z,9
2022-11-22T05:19:32.860Z,8.5
2022-11-22T05:29:32.637Z,8.5
2022-11-22T05:39:32.851Z,8.5
2022-11-22T05:49:32.916Z,8.5
2022-11-22T05:59:32.867Z,8.5
2022-11-22T06:09:32.814Z,8.5
2022-11-22T06:19:32.925Z,8.5
2022-11-22T06:29:32.953Z,8.5
2022-11-22T06:39:32.968Z,8.5
2022-11-22T06:49:32.955Z,9
2022-11-22T06:59:33.008Z,8.5
2022-11-22T07:09:33.080Z,8.5
2022-11-22T07:19:33.143Z,8.5
2022-11-22T07:29:32.883Z,9
2022-11-22T07:39:33.019Z,9
2022-11-22T07:49:33.021Z,9
2022-11-22T07:59:33.058Z,9
2022-11-22T08:09:32.914Z,9.5
2022-11-22T08:19:33.093Z,9.5
2022-11-22T08:29:33.058Z,9.5
2022-11-22T08:39:33.003Z,9.5
2022-11-22T08:49:33.280Z,9.5
2022-11-22T08:59:33.540Z,10
2022-11-22T09:09:37.598Z,10
2022-11-22T09:19:33.133Z,10
2022-11-22T09:29:33.259Z,11
2022-11-22T09:39:33.001Z,10.5
2022-11-22T09:49:33.426Z,10.5
2022-11-22T09:59:33.225Z,10.5
2022-11-22T10:09:33.241Z,10.5
2022-11-22T10:19:33.292Z,10.5
2022-11-22T10:29:33.149Z,10.5
2022-11-22T10:39:34.818Z,10.5
2022-11-22T10:49:33.091Z,10.5
2022-11-22T10:59:33.383Z,11
2022-11-22T11:10:10.042Z,11
2022-11-22T11:19:33.199Z,11
2022-11-22T11:29:37.332Z,11
2022-11-22T11:39:33.215Z,11
2022-11-22T11:49:33.483Z,11.5
2022-11-22T11:59:33.443Z,12
2022-11-22T12:09:33.185Z,12
2022-11-22T12:19:33.243Z,12
2022-11-22T12:29:33.177Z,12
2022-11-22T12:39:33.207Z,12
2022-11-22T12:49:33.177Z,12
2022-11-22T12:59:33.400Z,12
2022-11-22T13:09:33.166Z,12
2022-11-22T13:19:33.374Z,12
2022-11-22T13:29:33.153Z,13
2022-11-22T13:39:33.372Z,13
2022-11-22T13:49:37.365Z,13
2022-11-22T13:59:33.552Z,12.5
2022-11-22T14:09:33.145Z,13
2022-11-22T14:19:33.375Z,13
2022-11-22T14:29:33.349Z,13
2022-11-22T14:39:33.859Z,12.5
2022-11-22T14:49:33.581Z,13
2022-11-22T14:59:33.403Z,12.5
2022-11-22T15:09:45.041Z,13
2022-11-22T15:59:33.351Z,13
2022-11-22T16:09:33.573Z,12.5
2022-11-22T16:19:33.730Z,12.5
2022-11-22T16:29:33.571Z,12.5
2022-11-22T16:39:33.948Z,12.5
2022-11-22T16:49:33.709Z,12.5
2022-11-22T16:59:33.775Z,11.5
2022-11-22T17:09:33.553Z,11.5
2022-11-22T17:20:03.241Z,12
2022-11-22T17:30:01.846Z,11.5
2022-11-22T17:39:33.676Z,11.5
2022-11-22T17:49:33.792Z,11.5
2022-11-22T17:59:33.863Z,11.5
2022-11-22T18:09:33.668Z,11.5
2022-11-22T18:19:33.786Z,11.5
2022-11-22T18:29:49.183Z,11.5
2022-11-22T18:39:34.184Z,11.5
2022-11-22T18:49:33.836Z,12
2022-11-22T18:59:33.695Z,11.5
2022-11-22T19:09:33.459Z,12
2022-11-22T19:19:33.695Z,12
2022-11-22T19:29:33.744Z,11.5
2022-11-22T19:39:33.720Z,11.5
2022-11-22T19:49:33.672Z,10.5
2022-11-22T19:59:34.634Z,10.5
2022-11-22T20:09:33.838Z,10.5
2022-11-22T20:19:34.553Z,9.5
2022-11-22T20:29:33.658Z,9.5
2022-11-22T20:39:33.684Z,9.5
2022-11-22T20:49:33.653Z,9.5
2022-11-22T20:59:33.672Z,9.5
2022-11-22T21:09:33.664Z,9.5
2022-11-22T21:19:33.599Z,10
2022-11-22T21:29:33.670Z,10
2022-11-22T21:39:33.689Z,10
2022-11-22T21:49:33.661Z,9.5
2022-11-22T21:59:34.050Z,9.5
2022-11-22T22:09:33.859Z,9.5
2022-11-22T22:19:33.902Z,9.5
2022-11-22T22:29:33.820Z,9.5
2022-11-22T22:39:33.935Z,9.5
2022-11-22T22:49:33.919Z,9.5
2022-11-22T22:59:34.071Z,9.5
2022-11-22T23:09:33.946Z,9.5
2022-11-22T23:19:34.160Z,9.5
2022-11-22T23:29:34.103Z,9.5
2022-11-22T23:39:34.037Z,9
2022-11-22T23:49:34.092Z,8.5
2022-11-22T23:59:34.063Z,8.5
